sensor_id;sensor_type;location;lat;lon;timestamp;pressure;altitude;pressure_sealevel;temperature;humidity
10921;BME280;5513;50.580;8.818;2023-02-12T00:01:25;101185.91;;;6.15;100.00
10921;BME280;5513;50.580;8.818;2023-02-12T00:03:54;101188.50;;;6.17;100.00
10921;BME280;5513;50.580;8.818;2023-02-12T00:06:23;101184.13;;;6.16;100.00
10921;BME280;5513;50.580;8.818;2023-02-12T00:08:53;101183.28;;;6.14;100.00
10921;BME280;5513;50.580;8.818;2023-02-12T00:11:23;101187.59;;;6.21;100.00
10921;BME280;5513;50.580;8.818;2023-02-12T00:13:52;101184.25;;;6.10;100.00
10921;BME280;5513;50.580;8.818;2023-02-12T00:16:24;101179.88;;;6.09;100.00
10921;BME280;5513;50.580;8.818;2023-02-12T00:18:56;101178.94;;;6.13;100.00
10921;BME280;5513;50.580;8.818;2023-02-12T00:21:25;101180.69;;;6.12;100.00
10921;BME280;5513;50.580;8.818;2023-02-12T00:23:54;101179.69;;;6.21;100.00
10921;BME280;5513;50.580;8.818;2023-02-12T00:26:23;101178.84;;;6.19;100.00
10921;BME280;5513;50.580;8.818;2023-02-12T00:28:51;101176.25;;;6.16;100.00
10921;BME280;5513;50.580;8.818;2023-02-12T00:31:23;101177.09;;;6.19;100.00
10921;BME280;5513;50.580;8.818;2023-02-12T00:33:51;101177.13;;;6.15;100.00
10921;BME280;5513;50.580;8.818;2023-02-12T00:36:22;101179.75;;;6.16;100.00
10921;BME280;5513;50.580;8.818;2023-02-12T00:38:51;101169.38;;;6.04;100.00
10921;BME280;5513;50.580;8.818;2023-02-12T00:41:21;101175.63;;;5.98;100.00
10921;BME280;5513;50.580;8.818;2023-02-12T00:43:50;101171.22;;;5.99;100.00
10921;BME280;5513;50.580;8.818;2023-02-12T00:46:22;101166.06;;;5.91;100.00
10921;BME280;5513;50.580;8.818;2023-02-12T00:48:50;101162.56;;;5.86;100.00
10921;BME280;5513;50.580;8.818;2023-02-12T00:51:19;101171.31;;;5.87;100.00
10921;BME280;5513;50.580;8.818;2023-02-12T00:53:47;101173.88;;;5.96;100.00
10921;BME280;5513;50.580;8.818;2023-02-12T00:56:15;101172.97;;;6.00;100.00
10921;BME280;5513;50.580;8.818;2023-02-12T00:58:44;101160.75;;;5.94;100.00
10921;BME280;5513;50.580;8.818;2023-02-12T01:01:12;101157.22;;;5.95;100.00
10921;BME280;5513;50.580;8.818;2023-02-12T01:03:42;101159.91;;;5.92;100.00
10921;BME280;5513;50.580;8.818;2023-02-12T01:06:11;101158.28;;;5.79;100.00
10921;BME280;5513;50.580;8.818;2023-02-12T01:08:39;101152.97;;;5.84;100.00
10921;BME280;5513;50.580;8.818;2023-02-12T01:11:11;101152.13;;;5.79;100.00
10921;BME280;5513;50.580;8.818;2023-02-12T01:13:40;101151.34;;;5.73;100.00
10921;BME280;5513;50.580;8.818;2023-02-12T01:16:14;101153.94;;;5.75;100.00
10921;BME280;5513;50.580;8.818;2023-02-12T01:18:45;101146.06;;;5.73;100.00
10921;BME280;5513;50.580;8.818;2023-02-12T01:21:16;101150.31;;;5.85;100.00
10921;BME280;5513;50.580;8.818;2023-02-12T01:23:46;101149.34;;;5.94;100.00
10921;BME280;5513;50.580;8.818;2023-02-12T01:26:15;101137.91;;;5.99;100.00
10921;BME280;5513;50.580;8.818;2023-02-12T01:28:47;101145.25;;;5.68;100.00
10921;BME280;5513;50.580;8.818;2023-02-12T01:31:18;101151.53;;;5.55;100.00
10921;BME280;5513;50.580;8.818;2023-02-12T01:33:49;101157.78;;;5.45;100.00
10921;BME280;5513;50.580;8.818;2023-02-12T01:36:18;101155.91;;;5.58;100.00
10921;BME280;5513;50.580;8.818;2023-02-12T01:38:47;101151.41;;;5.66;100.00
10921;BME280;5513;50.580;8.818;2023-02-12T01:41:18;101156.47;;;5.83;100.00
10921;BME280;5513;50.580;8.818;2023-02-12T01:44:06;101159.94;;;5.91;100.00
10921;BME280;5513;50.580;8.818;2023-02-12T01:46:35;101158.41;;;5.68;100.00
10921;BME280;5513;50.580;8.818;2023-02-12T01:49:09;101160.97;;;5.73;100.00
10921;BME280;5513;50.580;8.818;2023-02-12T01:51:39;101154.75;;;5.79;100.00
10921;BME280;5513;50.580;8.818;2023-02-12T01:54:11;101161.75;;;5.81;100.00
10921;BME280;5513;50.580;8.818;2023-02-12T01:56:40;101160.03;;;5.79;100.00
10921;BME280;5513;50.580;8.818;2023-02-12T01:59:09;101152.91;;;5.90;100.00
10921;BME280;5513;50.580;8.818;2023-02-12T02:01:38;101158.16;;;5.90;100.00
10921;BME280;5513;50.580;8.818;2023-02-12T02:04:11;101159.06;;;5.89;100.00
10921;BME280;5513;50.580;8.818;2023-02-12T02:06:45;101159.06;;;5.89;100.00
10921;BME280;5513;50.580;8.818;2023-02-12T02:09:18;101153.81;;;5.90;100.00
10921;BME280;5513;50.580;8.818;2023-02-12T02:11:46;101154.69;;;5.85;100.00
10921;BME280;5513;50.580;8.818;2023-02-12T02:14:32;101152.94;;;5.85;100.00
10921;BME280;5513;50.580;8.818;2023-02-12T02:17:15;101153.78;;;5.87;100.00
10921;BME280;5513;50.580;8.818;2023-02-12T02:23:07;101146.63;;;6.01;100.00
10921;BME280;5513;50.580;8.818;2023-02-12T02:25:55;101141.50;;;5.92;100.00
10921;BME280;5513;50.580;8.818;2023-02-12T02:28:53;101146.66;;;6.00;100.00
10921;BME280;5513;50.580;8.818;2023-02-12T02:31:29;101139.63;;;6.00;100.00
10921;BME280;5513;50.580;8.818;2023-02-12T02:34:03;101143.94;;;6.05;100.00
10921;BME280;5513;50.580;8.818;2023-02-12T02:36:39;101138.78;;;6.00;100.00
10921;BME280;5513;50.580;8.818;2023-02-12T02:39:28;101141.34;;;6.03;100.00
10921;BME280;5513;50.580;8.818;2023-02-12T02:42:07;101137.97;;;5.93;100.00
10921;BME280;5513;50.580;8.818;2023-02-12T02:44:41;101141.28;;;6.06;100.00
10921;BME280;5513;50.580;8.818;2023-02-12T02:47:15;101133.50;;;6.00;100.00
10921;BME280;5513;50.580;8.818;2023-02-12T02:49:47;101144.06;;;5.98;100.00
10921;BME280;5513;50.580;8.818;2023-02-12T02:52:19;101148.28;;;6.07;100.00
10921;BME280;5513;50.580;8.818;2023-02-12T02:54:52;101136.91;;;6.07;100.00
10921;BME280;5513;50.580;8.818;2023-02-12T02:57:26;101140.44;;;6.06;100.00
10921;BME280;5513;50.580;8.818;2023-02-12T02:59:59;101138.63;;;6.08;100.00
10921;BME280;5513;50.580;8.818;2023-02-12T03:02:35;101142.13;;;6.11;100.00
10921;BME280;5513;50.580;8.818;2023-02-12T03:05:08;101146.47;;;6.12;100.00
10921;BME280;5513;50.580;8.818;2023-02-12T03:07:40;101143.94;;;6.05;100.00
10921;BME280;5513;50.580;8.818;2023-02-12T03:10:13;101143.19;;;5.96;100.00
10921;BME280;5513;50.580;8.818;2023-02-12T03:12:48;101151.16;;;5.89;100.00
10921;BME280;5513;50.580;8.818;2023-02-12T03:15:21;101153.88;;;5.81;100.00
10921;BME280;5513;50.580;8.818;2023-02-12T03:17:53;101161.69;;;5.89;100.00
10921;BME280;5513;50.580;8.818;2023-02-12T03:20:24;101161.56;;;5.98;100.00
10921;BME280;5513;50.580;8.818;2023-02-12T03:22:58;101155.50;;;5.94;100.00
10921;BME280;5513;50.580;8.818;2023-02-12T03:25:33;101158.16;;;5.93;100.00
10921;BME280;5513;50.580;8.818;2023-02-12T03:28:05;101161.69;;;5.90;100.00
10921;BME280;5513;50.580;8.818;2023-02-12T03:30:41;101159.06;;;5.86;100.00
10921;BME280;5513;50.580;8.818;2023-02-12T03:33:20;101156.44;;;5.86;100.00
10921;BME280;5513;50.580;8.818;2023-02-12T03:35:55;101158.16;;;5.93;100.00
10921;BME280;5513;50.580;8.818;2023-02-12T03:38:33;101157.28;;;5.92;100.00
10921;BME280;5513;50.580;8.818;2023-02-12T03:41:08;101159.06;;;5.89;100.00
10921;BME280;5513;50.580;8.818;2023-02-12T03:43:45;101157.38;;;5.82;100.00
10921;BME280;5513;50.580;8.818;2023-02-12T03:46:21;101153.06;;;5.76;100.00
10921;BME280;5513;50.580;8.818;2023-02-12T03:48:58;101163.44;;;5.91;100.00
10921;BME280;5513;50.580;8.818;2023-02-12T03:51:33;101159.91;;;5.92;100.00
10921;BME280;5513;50.580;8.818;2023-02-12T03:54:03;101166.09;;;5.85;100.00
10921;BME280;5513;50.580;8.818;2023-02-12T03:56:43;101156.41;;;5.89;100.00
10921;BME280;5513;50.580;8.818;2023-02-12T03:59:14;101161.75;;;5.81;100.00
10921;BME280;5513;50.580;8.818;2023-02-12T04:01:43;101159.13;;;5.83;100.00
10921;BME280;5513;50.580;8.818;2023-02-12T04:04:13;101159.97;;;5.85;100.00
10921;BME280;5513;50.580;8.818;2023-02-12T04:06:42;101164.44;;;5.77;100.00
10921;BME280;5513;50.580;8.818;2023-02-12T04:09:13;101166.09;;;5.85;100.00
10921;BME280;5513;50.580;8.818;2023-02-12T04:11:57;101179.97;;;5.99;100.00
10921;BME280;5513;50.580;8.818;2023-02-12T04:14:31;101179.13;;;5.96;100.00
10921;BME280;5513;50.580;8.818;2023-02-12T04:17:07;101177.41;;;5.93;100.00
10921;BME280;5513;50.580;8.818;2023-02-12T04:19:49;101177.25;;;6.09;100.00
10921;BME280;5513;50.580;8.818;2023-02-12T04:22:31;101183.59;;;5.89;100.00
10921;BME280;5513;50.580;8.818;2023-02-12T04:25:13;101179.25;;;5.84;100.00
10921;BME280;5513;50.580;8.818;2023-02-12T04:27:47;101185.47;;;5.80;100.00
10921;BME280;5513;50.580;8.818;2023-02-12T04:30:20;101180.09;;;5.87;100.00
10921;BME280;5513;50.580;8.818;2023-02-12T04:32:53;101180.16;;;5.83;100.00
10921;BME280;5513;50.580;8.818;2023-02-12T04:35:31;101188.84;;;5.88;100.00
10921;BME280;5513;50.580;8.818;2023-02-12T04:38:06;101189.81;;;5.82;100.00
10921;BME280;5513;50.580;8.818;2023-02-12T04:40:38;101181.94;;;5.81;100.00
10921;BME280;5513;50.580;8.818;2023-02-12T04:43:08;101188.94;;;5.79;100.00
10921;BME280;5513;50.580;8.818;2023-02-12T04:45:37;101196.88;;;5.75;100.00
10921;BME280;5513;50.580;8.818;2023-02-12T04:48:06;101196.19;;;5.61;100.00
10921;BME280;5513;50.580;8.818;2023-02-12T04:50:39;101196.13;;;5.64;100.00
10921;BME280;5513;50.580;8.818;2023-02-12T04:53:08;101186.50;;;5.65;100.00
10921;BME280;5513;50.580;8.818;2023-02-12T04:55:37;101190.03;;;5.62;100.00
10921;BME280;5513;50.580;8.818;2023-02-12T04:58:05;101194.41;;;5.62;100.00
10921;BME280;5513;50.580;8.818;2023-02-12T05:00:34;101186.59;;;5.56;100.00
10921;BME280;5513;50.580;8.818;2023-02-12T05:03:03;101194.41;;;5.62;100.00
10921;BME280;5513;50.580;8.818;2023-02-12T05:05:33;101194.31;;;5.71;100.00
10921;BME280;5513;50.580;8.818;2023-02-12T05:08:03;101190.66;;;5.84;100.00
10921;BME280;5513;50.580;8.818;2023-02-12T05:10:31;101187.22;;;5.78;100.00
10921;BME280;5513;50.580;8.818;2023-02-12T05:12:59;101202.13;;;5.75;100.00
10921;BME280;5513;50.580;8.818;2023-02-12T05:15:28;101194.31;;;5.71;100.00
10921;BME280;5513;50.580;8.818;2023-02-12T05:17:56;101203.06;;;5.73;100.00
10921;BME280;5513;50.580;8.818;2023-02-12T05:20:24;101203.97;;;5.70;100.00
10921;BME280;5513;50.580;8.818;2023-02-12T05:22:53;101202.16;;;5.74;100.00
10921;BME280;5513;50.580;8.818;2023-02-12T05:25:23;101204.84;;;5.71;100.00
10921;BME280;5513;50.580;8.818;2023-02-12T05:27:52;101200.44;;;5.73;100.00
10921;BME280;5513;50.580;8.818;2023-02-12T05:30:22;101206.56;;;5.72;100.00
10921;BME280;5513;50.580;8.818;2023-02-12T05:32:51;101207.41;;;5.74;100.00
10921;BME280;5513;50.580;8.818;2023-02-12T05:35:19;101211.84;;;5.69;100.00
10921;BME280;5513;50.580;8.818;2023-02-12T05:37:47;101209.09;;;5.81;100.00
10921;BME280;5513;50.580;8.818;2023-02-12T05:40:16;101207.47;;;5.71;100.00
10921;BME280;5513;50.580;8.818;2023-02-12T05:42:46;101208.19;;;5.84;100.00
10921;BME280;5513;50.580;8.818;2023-02-12T05:45:14;101201.25;;;5.77;100.00
10921;BME280;5513;50.580;8.818;2023-02-12T05:47:43;101209.22;;;5.70;100.00
10921;BME280;5513;50.580;8.818;2023-02-12T05:50:12;101207.47;;;5.71;100.00
10921;BME280;5513;50.580;8.818;2023-02-12T05:52:43;101211.91;;;5.64;100.00
10921;BME280;5513;50.580;8.818;2023-02-12T05:55:12;101210.06;;;5.72;100.00
10921;BME280;5513;50.580;8.818;2023-02-12T05:57:40;101210.13;;;5.69;100.00
10921;BME280;5513;50.580;8.818;2023-02-12T06:00:13;101203.13;;;5.65;100.00
10921;BME280;5513;50.580;8.818;2023-02-12T06:02:41;101205.84;;;5.58;100.00
10921;BME280;5513;50.580;8.818;2023-02-12T06:05:09;101203.28;;;5.52;100.00
10921;BME280;5513;50.580;8.818;2023-02-12T06:07:38;101211.16;;;5.53;100.00
10921;BME280;5513;50.580;8.818;2023-02-12T06:10:07;101206.78;;;5.52;100.00
10921;BME280;5513;50.580;8.818;2023-02-12T06:12:36;101204.94;;;5.59;100.00
10921;BME280;5513;50.580;8.818;2023-02-12T06:15:05;101204.94;;;5.62;100.00
10921;BME280;5513;50.580;8.818;2023-02-12T06:17:35;101198.75;;;5.66;100.00
10921;BME280;5513;50.580;8.818;2023-02-12T06:20:04;101207.53;;;5.65;100.00
10921;BME280;5513;50.580;8.818;2023-02-12T06:22:34;101210.31;;;5.48;100.00
10921;BME280;5513;50.580;8.818;2023-02-12T06:25:04;101211.97;;;5.60;100.00
10921;BME280;5513;50.580;8.818;2023-02-12T06:27:33;101218.13;;;5.56;100.00
10921;BME280;5513;50.580;8.818;2023-02-12T06:30:02;101226.03;;;5.54;100.00
10921;BME280;5513;50.580;8.818;2023-02-12T06:32:30;101227.78;;;5.55;100.00
10921;BME280;5513;50.580;8.818;2023-02-12T06:35:00;101225.09;;;5.61;100.00
10921;BME280;5513;50.580;8.818;2023-02-12T06:37:28;101225.00;;;5.67;100.00
10921;BME280;5513;50.580;8.818;2023-02-12T06:39:58;101236.41;;;5.66;100.00
10921;BME280;5513;50.580;8.818;2023-02-12T06:42:26;101237.25;;;5.68;100.00
10921;BME280;5513;50.580;8.818;2023-02-12T06:44:55;101240.88;;;5.61;100.00
10921;BME280;5513;50.580;8.818;2023-02-12T06:47:25;101242.63;;;5.59;100.00
10921;BME280;5513;50.580;8.818;2023-02-12T06:49:54;101245.09;;;5.76;100.00
10921;BME280;5513;50.580;8.818;2023-02-12T06:52:24;101250.44;;;5.67;100.00
10921;BME280;5513;50.580;8.818;2023-02-12T06:54:57;101253.06;;;5.67;100.00
10921;BME280;5513;50.580;8.818;2023-02-12T06:57:28;101258.34;;;5.65;100.00
10921;BME280;5513;50.580;8.818;2023-02-12T06:59:56;101257.53;;;5.60;100.00
10921;BME280;5513;50.580;8.818;2023-02-12T07:02:25;101253.19;;;5.55;100.00
10921;BME280;5513;50.580;8.818;2023-02-12T07:04:53;101259.22;;;5.64;100.00
10921;BME280;5513;50.580;8.818;2023-02-12T07:07:21;101264.53;;;5.61;100.00
10921;BME280;5513;50.580;8.818;2023-02-12T07:09:53;101270.59;;;5.66;100.00
10921;BME280;5513;50.580;8.818;2023-02-12T07:12:21;101268.91;;;5.62;100.00
10921;BME280;5513;50.580;8.818;2023-02-12T07:14:50;101279.47;;;5.55;100.00
10921;BME280;5513;50.580;8.818;2023-02-12T07:17:19;101285.63;;;5.54;100.00
10921;BME280;5513;50.580;8.818;2023-02-12T07:19:47;101283.78;;;5.63;100.00
10921;BME280;5513;50.580;8.818;2023-02-12T07:22:15;101284.72;;;5.56;100.00
10921;BME280;5513;50.580;8.818;2023-02-12T07:24:44;101278.56;;;5.60;100.00
10921;BME280;5513;50.580;8.818;2023-02-12T07:27:14;101288.38;;;5.41;100.00
10921;BME280;5513;50.580;8.818;2023-02-12T07:29:43;101287.41;;;5.52;100.00
10921;BME280;5513;50.580;8.818;2023-02-12T07:32:11;101298.81;;;5.46;100.00
10921;BME280;5513;50.580;8.818;2023-02-12T07:34:40;101292.66;;;5.49;100.00
10921;BME280;5513;50.580;8.818;2023-02-12T07:37:08;101292.56;;;5.59;100.00
10921;BME280;5513;50.580;8.818;2023-02-12T07:39:36;101297.03;;;5.53;100.00
10921;BME280;5513;50.580;8.818;2023-02-12T07:42:05;101293.44;;;5.63;100.00
10921;BME280;5513;50.580;8.818;2023-02-12T07:44:35;101291.63;;;5.69;100.00
10921;BME280;5513;50.580;8.818;2023-02-12T07:47:04;101296.03;;;5.64;100.00
10921;BME280;5513;50.580;8.818;2023-02-12T07:49:32;101298.81;;;5.51;100.00
10921;BME280;5513;50.580;8.818;2023-02-12T07:52:01;101299.53;;;5.65;100.00
10921;BME280;5513;50.580;8.818;2023-02-12T07:54:29;101304.72;;;5.72;100.00
10921;BME280;5513;50.580;8.818;2023-02-12T07:56:57;101309.97;;;5.74;100.00
10921;BME280;5513;50.580;8.818;2023-02-12T07:59:26;101309.88;;;5.83;100.00
10921;BME280;5513;50.580;8.818;2023-02-12T08:01:57;101307.28;;;5.79;100.00
10921;BME280;5513;50.580;8.818;2023-02-12T08:04:26;101306.41;;;5.81;100.00
10921;BME280;5513;50.580;8.818;2023-02-12T08:06:55;101309.00;;;5.84;100.00
10921;BME280;5513;50.580;8.818;2023-02-12T08:09:26;101315.19;;;5.77;100.00
10921;BME280;5513;50.580;8.818;2023-02-12T08:11:56;101321.34;;;5.79;100.00
10921;BME280;5513;50.580;8.818;2023-02-12T08:14:25;101321.19;;;5.94;100.00
10921;BME280;5513;50.580;8.818;2023-02-12T08:16:57;101316.84;;;5.92;100.00
10921;BME280;5513;50.580;8.818;2023-02-12T08:19:25;101317.81;;;5.77;100.00
10921;BME280;5513;50.580;8.818;2023-02-12T08:21:55;101323.06;;;5.79;100.00
10921;BME280;5513;50.580;8.818;2023-02-12T08:24:24;101335.19;;;5.99;100.00
10921;BME280;5513;50.580;8.818;2023-02-12T08:26:52;101335.91;;;6.12;100.00
10921;BME280;5513;50.580;8.818;2023-02-12T08:29:26;101336.72;;;6.19;100.00
10921;BME280;5513;50.580;8.818;2023-02-12T08:31:58;101341.09;;;6.20;100.00
10921;BME280;5513;50.580;8.818;2023-02-12T08:34:28;101325.19;;;6.30;100.00
10921;BME280;5513;50.580;8.818;2023-02-12T08:36:57;101333.97;;;6.29;100.00
10921;BME280;5513;50.580;8.818;2023-02-12T08:39:27;101334.75;;;6.38;100.00
10921;BME280;5513;50.580;8.818;2023-02-12T08:41:57;101327.72;;;6.37;100.00
10921;BME280;5513;50.580;8.818;2023-02-12T08:44:26;101333.00;;;6.38;100.00
10921;BME280;5513;50.580;8.818;2023-02-12T08:46:54;101332.94;;;6.43;100.00
10921;BME280;5513;50.580;8.818;2023-02-12T08:49:25;101336.47;;;6.42;100.00
10921;BME280;5513;50.580;8.818;2023-02-12T08:51:56;101330.25;;;6.49;100.00
10921;BME280;5513;50.580;8.818;2023-02-12T08:54:26;101336.28;;;6.57;100.00
10921;BME280;5513;50.580;8.818;2023-02-12T08:56:57;101333.75;;;6.46;100.00
10921;BME280;5513;50.580;8.818;2023-02-12T08:59:26;101336.28;;;6.55;100.00
10921;BME280;5513;50.580;8.818;2023-02-12T09:01:55;101336.38;;;6.49;100.00
10921;BME280;5513;50.580;8.818;2023-02-12T09:04:26;101336.38;;;6.46;100.00
10921;BME280;5513;50.580;8.818;2023-02-12T09:06:55;101333.75;;;6.49;100.00
10921;BME280;5513;50.580;8.818;2023-02-12T09:09:24;101333.78;;;6.45;100.00
10921;BME280;5513;50.580;8.818;2023-02-12T09:11:52;101341.41;;;6.68;100.00
10921;BME280;5513;50.580;8.818;2023-02-12T09:14:20;101340.63;;;6.59;100.00
10921;BME280;5513;50.580;8.818;2023-02-12T09:16:51;101337.97;;;6.61;100.00
10921;BME280;5513;50.580;8.818;2023-02-12T09:19:21;101339.53;;;6.77;100.00
10921;BME280;5513;50.580;8.818;2023-02-12T09:21:53;101334.22;;;6.80;100.00
10921;BME280;5513;50.580;8.818;2023-02-12T09:24:23;101330.53;;;6.92;100.00
10921;BME280;5513;50.580;8.818;2023-02-12T09:26:51;101334.00;;;6.96;100.00
10921;BME280;5513;50.580;8.818;2023-02-12T09:29:19;101333.88;;;7.03;100.00
10921;BME280;5513;50.580;8.818;2023-02-12T09:31:48;101338.13;;;7.15;100.00
10921;BME280;5513;50.580;8.818;2023-02-12T09:34:16;101338.28;;;7.03;100.00
10921;BME280;5513;50.580;8.818;2023-02-12T09:36:45;101332.47;;;7.39;100.00
10921;BME280;5513;50.580;8.818;2023-02-12T09:39:15;101336.59;;;7.56;100.00
10921;BME280;5513;50.580;8.818;2023-02-12T09:44:47;101349.53;;;7.69;100.00
10921;BME280;5513;50.580;8.818;2023-02-12T09:47:22;101337.06;;;7.79;100.00
10921;BME280;5513;50.580;8.818;2023-02-12T09:50:10;101337.81;;;7.87;100.00
10921;BME280;5513;50.580;8.818;2023-02-12T09:52:44;101337.78;;;7.89;100.00
10921;BME280;5513;50.580;8.818;2023-02-12T09:55:18;101336.88;;;7.90;100.00
10921;BME280;5513;50.580;8.818;2023-02-12T09:57:46;101335.66;;;8.08;100.00
10921;BME280;5513;50.580;8.818;2023-02-12T10:00:20;101334.69;;;8.13;100.00
10921;BME280;5513;50.580;8.818;2023-02-12T10:02:52;101334.38;;;8.30;100.00
10921;BME280;5513;50.580;8.818;2023-02-12T10:05:24;101336.00;;;8.37;100.00
10921;BME280;5513;50.580;8.818;2023-02-12T10:08:24;101337.53;;;8.50;100.00
10921;BME280;5513;50.580;8.818;2023-02-12T10:11:00;101332.38;;;8.43;100.00
10921;BME280;5513;50.580;8.818;2023-02-12T10:13:39;101325.94;;;8.56;100.00
10921;BME280;5513;50.580;8.818;2023-02-12T10:16:14;101327.78;;;8.52;100.00
10921;BME280;5513;50.580;8.818;2023-02-12T10:19:03;101324.31;;;8.50;100.00
10921;BME280;5513;50.580;8.818;2023-02-12T10:21:41;101321.69;;;8.50;100.00
10921;BME280;5513;50.580;8.818;2023-02-12T10:24:27;101322.47;;;8.54;100.00
10921;BME280;5513;50.580;8.818;2023-02-12T10:27:10;101312.97;;;8.85;100.00
10921;BME280;5513;50.580;8.818;2023-02-12T10:29:41;101315.81;;;8.76;100.00
10921;BME280;5513;50.580;8.818;2023-02-12T10:32:16;101311.72;;;8.63;100.00
10921;BME280;5513;50.580;8.818;2023-02-12T10:34:47;101309.78;;;8.71;100.00
10921;BME280;5513;50.580;8.818;2023-02-12T10:37:23;101307.63;;;8.88;100.00
10921;BME280;5513;50.580;8.818;2023-02-12T10:39:57;101301.16;;;8.63;100.00
10921;BME280;5513;50.580;8.818;2023-02-12T10:42:35;101298.25;;;8.74;100.00
10921;BME280;5513;50.580;8.818;2023-02-12T10:45:08;101297.84;;;8.92;100.00
10921;BME280;5513;50.580;8.818;2023-02-12T10:47:42;101293.22;;;9.02;100.00
10921;BME280;5513;50.580;8.818;2023-02-12T10:50:18;101291.56;;;8.98;100.00
10921;BME280;5513;50.580;8.818;2023-02-12T10:52:51;101289.53;;;9.09;100.00
10921;BME280;5513;50.580;8.818;2023-02-12T10:55:26;101280.75;;;9.08;100.00
10921;BME280;5513;50.580;8.818;2023-02-12T10:57:56;101281.06;;;8.95;100.00
10921;BME280;5513;50.580;8.818;2023-02-12T11:00:29;101273.38;;;8.84;100.00
10921;BME280;5513;50.580;8.818;2023-02-12T11:03:04;101270.56;;;9.29;100.00
10921;BME280;5513;50.580;8.818;2023-02-12T11:05:34;101274.66;;;9.40;100.00
10921;BME280;5513;50.580;8.818;2023-02-12T11:08:05;101266.44;;;9.51;100.00
10921;BME280;5513;50.580;8.818;2023-02-12T11:10:37;101264.09;;;9.40;100.00
10921;BME280;5513;50.580;8.818;2023-02-12T11:13:21;101264.22;;;9.34;100.00
10921;BME280;5513;50.580;8.818;2023-02-12T11:15:51;101259.84;;;9.33;100.00
10921;BME280;5513;50.580;8.818;2023-02-12T11:18:21;101257.97;;;9.38;100.00
10921;BME280;5513;50.580;8.818;2023-02-12T11:20:55;101262.97;;;9.49;100.00
10921;BME280;5513;50.580;8.818;2023-02-12T11:23:26;101258.31;;;9.59;100.00
10921;BME280;5513;50.580;8.818;2023-02-12T11:25:58;101247.94;;;9.15;100.00
10921;BME280;5513;50.580;8.818;2023-02-12T11:28:32;101254.00;;;9.21;100.00
10921;BME280;5513;50.580;8.818;2023-02-12T11:31:23;101251.56;;;9.47;100.00
10921;BME280;5513;50.580;8.818;2023-02-12T11:34:14;101247.34;;;9.40;100.00
10921;BME280;5513;50.580;8.818;2023-02-12T11:36:44;101247.03;;;9.16;100.00
10921;BME280;5513;50.580;8.818;2023-02-12T11:39:18;101248.22;;;9.40;100.00
10921;BME280;5513;50.580;8.818;2023-02-12T11:41:54;101240.66;;;9.25;100.00
10921;BME280;5513;50.580;8.818;2023-02-12T11:44:28;101245.03;;;9.28;100.00
10921;BME280;5513;50.580;8.818;2023-02-12T11:47:02;101254.13;;;9.14;100.00
10921;BME280;5513;50.580;8.818;2023-02-12T11:49:38;101247.75;;;9.23;100.00
10921;BME280;5513;50.580;8.818;2023-02-12T11:52:18;101248.25;;;9.39;100.00
10921;BME280;5513;50.580;8.818;2023-02-12T11:54:49;101246.63;;;9.33;100.00
10921;BME280;5513;50.580;8.818;2023-02-12T11:57:35;101249.84;;;9.44;100.00
10921;BME280;5513;50.580;8.818;2023-02-12T12:00:12;101242.72;;;9.48;100.00
10921;BME280;5513;50.580;8.818;2023-02-12T12:02:44;101246.75;;;9.29;100.00
10921;BME280;5513;50.580;8.818;2023-02-12T12:05:19;101238.13;;;9.21;100.00
10921;BME280;5513;50.580;8.818;2023-02-12T12:07:52;101237.25;;;9.54;100.00
10921;BME280;5513;50.580;8.818;2023-02-12T12:10:28;101233.06;;;9.45;100.00
10921;BME280;5513;50.580;8.818;2023-02-12T12:13:01;101230.47;;;9.44;100.00
10921;BME280;5513;50.580;8.818;2023-02-12T12:15:35;101228.63;;;9.80;100.00
10921;BME280;5513;50.580;8.818;2023-02-12T12:18:26;101230.13;;;9.90;100.00
10921;BME280;5513;50.580;8.818;2023-02-12T12:21:19;101226.69;;;9.87;100.00
10921;BME280;5513;50.580;8.818;2023-02-12T12:23:54;101224.34;;;9.74;100.00
10921;BME280;5513;50.580;8.818;2023-02-12T12:26:26;101219.41;;;9.30;100.00
10921;BME280;5513;50.580;8.818;2023-02-12T12:29:00;101221.94;;;9.33;100.00
10921;BME280;5513;50.580;8.818;2023-02-12T12:31:37;101218.78;;;9.53;100.00
10921;BME280;5513;50.580;8.818;2023-02-12T12:34:09;101220.03;;;9.39;100.00
10921;BME280;5513;50.580;8.818;2023-02-12T12:36:52;101215.03;;;9.61;100.00
10921;BME280;5513;50.580;8.818;2023-02-12T12:39:34;101215.16;;;9.57;100.00
10921;BME280;5513;50.580;8.818;2023-02-12T12:42:18;101214.06;;;9.64;100.00
10921;BME280;5513;50.580;8.818;2023-02-12T12:45:13;101210.56;;;9.63;100.00
10921;BME280;5513;50.580;8.818;2023-02-12T12:47:55;101205.59;;;9.51;100.00
10921;BME280;5513;50.580;8.818;2023-02-12T12:50:41;101206.41;;;9.53;100.00
10921;BME280;5513;50.580;8.818;2023-02-12T12:53:21;101206.38;;;9.55;100.00
10921;BME280;5513;50.580;8.818;2023-02-12T12:56:09;101206.22;;;9.61;100.00
10921;BME280;5513;50.580;8.818;2023-02-12T12:58:54;101213.97;;;9.68;100.00
10921;BME280;5513;50.580;8.818;2023-02-12T13:01:49;101206.88;;;9.69;100.00
10921;BME280;5513;50.580;8.818;2023-02-12T13:04:49;101198.13;;;9.67;100.00
10921;BME280;5513;50.580;8.818;2023-02-12T13:07:39;101203.47;;;9.65;100.00
10921;BME280;5513;50.580;8.818;2023-02-12T13:10:18;101193.50;;;9.75;100.00
10921;BME280;5513;50.580;8.818;2023-02-12T13:13:05;101191.75;;;9.74;100.00
10921;BME280;5513;50.580;8.818;2023-02-12T13:15:43;101195.44;;;9.68;100.00
10921;BME280;5513;50.580;8.818;2023-02-12T13:18:27;101198.00;;;9.71;100.00
10921;BME280;5513;50.580;8.818;2023-02-12T13:21:05;101190.69;;;9.49;100.00
10921;BME280;5513;50.580;8.818;2023-02-12T13:23:42;101193.19;;;9.53;100.00
10921;BME280;5513;50.580;8.818;2023-02-12T13:26:16;101196.25;;;9.70;100.00
10921;BME280;5513;50.580;8.818;2023-02-12T13:28:49;101191.94;;;9.68;100.00
10921;BME280;5513;50.580;8.818;2023-02-12T13:31:21;101193.16;;;9.55;100.00
10921;BME280;5513;50.580;8.818;2023-02-12T13:34:00;101190.66;;;9.50;100.00
10921;BME280;5513;50.580;8.818;2023-02-12T13:36:31;101186.94;;;9.57;100.00